WZZ4D1 LMML-LEMD
Flight info
| Callsign | WZZ4D1 |
|---|---|
| Flight time | N/A |
| Altitude | 38000 |
| Route | GZO M978 DCT MORJA UA411 ANB UM134 LUXUR DCT NINES M134 VLC/N0464F330 N733 PRADO |
| Aircraft | A20N/M-V/N |
Departure
| Time | 2026-05-05 17:36 |
|---|---|
| Airport | Malta International Airport (LMML) |
Arrival
| Time | N/A |
|---|---|
| Airport | Adolfo Suárez Madrid–Barajas Airport (LEMD) |
| Time | Latitude | Longitude | Altitude | Speed | Heading |
|---|---|---|---|---|---|
| 2026-05-05 17:28 | 35.84720 | 14.49414 | 247 ft | 0 kts | 224° |
| 2026-05-05 17:33 | 35.84719 | 14.49413 | 247 ft | 1 kts | 225° |
| 2026-05-05 17:34 | 35.84722 | 14.49333 | 248 ft | 14 kts | 322° |
| 2026-05-05 17:34 | 35.84789 | 14.49242 | 250 ft | 16 kts | 315° |
| 2026-05-05 17:34 | 35.84879 | 14.49130 | 253 ft | 20 kts | 314° |
| 2026-05-05 17:34 | 35.84977 | 14.48968 | 258 ft | 25 kts | 292° |
| 2026-05-05 17:35 | 35.85028 | 14.48754 | 260 ft | 23 kts | 282° |
| 2026-05-05 17:35 | 35.85006 | 14.48683 | 261 ft | 10 kts | 141° |
| 2026-05-05 17:35 | 35.84814 | 14.48909 | 257 ft | 78 kts | 134° |
| 2026-05-05 17:35 | 35.84246 | 14.49613 | 252 ft | 149 kts | 134° |
| 2026-05-05 17:36 | 35.83461 | 14.50590 | 777 ft | 165 kts | 134° |
| 2026-05-05 17:36 | 35.82525 | 14.51426 | 1354 ft | 180 kts | 160° |
| 2026-05-05 17:36 | 35.81215 | 14.51389 | 1886 ft | 202 kts | 201° |
| 2026-05-05 17:36 | 35.80156 | 14.50155 | 2238 ft | 227 kts | 244° |
| 2026-05-05 17:37 | 35.79961 | 14.48167 | 2628 ft | 248 kts | 278° |
| 2026-05-05 17:37 | 35.80394 | 14.46043 | 3040 ft | 265 kts | 286° |
| 2026-05-05 17:37 | 35.80954 | 14.43827 | 3432 ft | 280 kts | 286° |
| 2026-05-05 17:37 | 35.81520 | 14.41513 | 4063 ft | 284 kts | 285° |
| 2026-05-05 17:38 | 35.82058 | 14.39179 | 4742 ft | 286 kts | 285° |
| 2026-05-05 17:38 | 35.82578 | 14.36815 | 5231 ft | 295 kts | 284° |
| 2026-05-05 17:38 | 35.83103 | 14.34337 | 5753 ft | 301 kts | 284° |
| 2026-05-05 17:38 | 35.83627 | 14.31817 | 6354 ft | 304 kts | 284° |
| 2026-05-05 17:39 | 35.84146 | 14.29294 | 6976 ft | 306 kts | 283° |
| 2026-05-05 17:39 | 35.84665 | 14.26762 | 7607 ft | 307 kts | 283° |
| 2026-05-05 17:39 | 35.85183 | 14.24215 | 8236 ft | 308 kts | 283° |
| 2026-05-05 17:39 | 35.85694 | 14.21683 | 8823 ft | 309 kts | 283° |
| 2026-05-05 17:40 | 35.86217 | 14.19093 | 9393 ft | 310 kts | 283° |
| 2026-05-05 17:40 | 35.86734 | 14.16522 | 9939 ft | 311 kts | 283° |
| 2026-05-05 17:40 | 35.87251 | 14.13937 | 10490 ft | 312 kts | 283° |
| 2026-05-05 17:40 | 35.87770 | 14.11344 | 11012 ft | 313 kts | 283° |
| 2026-05-05 17:41 | 35.88291 | 14.08737 | 11497 ft | 315 kts | 283° |
| 2026-05-05 17:41 | 35.88811 | 14.06132 | 11973 ft | 317 kts | 283° |
| 2026-05-05 17:41 | 35.89341 | 14.03478 | 12449 ft | 319 kts | 283° |
| 2026-05-05 17:41 | 35.89866 | 14.00839 | 12898 ft | 321 kts | 283° |
| 2026-05-05 17:42 | 35.90402 | 13.98149 | 13342 ft | 322 kts | 283° |
| 2026-05-05 17:42 | 35.90937 | 13.95463 | 13784 ft | 324 kts | 283° |
| 2026-05-05 17:42 | 35.91470 | 13.92782 | 14220 ft | 325 kts | 283° |
| 2026-05-05 17:42 | 35.92004 | 13.90097 | 14635 ft | 326 kts | 283° |
| 2026-05-05 17:43 | 35.92545 | 13.87367 | 15046 ft | 327 kts | 283° |
| 2026-05-05 17:43 | 35.93088 | 13.84623 | 15436 ft | 329 kts | 283° |
| 2026-05-05 17:43 | 35.93626 | 13.81898 | 15815 ft | 331 kts | 283° |
| 2026-05-05 17:43 | 35.94172 | 13.79130 | 16188 ft | 332 kts | 283° |
| 2026-05-05 17:44 | 35.94714 | 13.76380 | 16549 ft | 334 kts | 283° |
| 2026-05-05 17:44 | 35.95261 | 13.73604 | 16903 ft | 335 kts | 283° |
| 2026-05-05 17:44 | 35.95810 | 13.70810 | 17249 ft | 336 kts | 283° |
| 2026-05-05 17:44 | 35.96363 | 13.67995 | 17587 ft | 338 kts | 283° |
| 2026-05-05 17:45 | 35.96915 | 13.65179 | 17934 ft | 338 kts | 283° |
| 2026-05-05 17:45 | 35.97466 | 13.62370 | 18251 ft | 340 kts | 283° |
| 2026-05-05 17:45 | 35.98026 | 13.59513 | 18561 ft | 341 kts | 283° |
| 2026-05-05 17:45 | 35.98584 | 13.56659 | 18863 ft | 343 kts | 283° |
| 2026-05-05 17:46 | 35.99137 | 13.53823 | 19142 ft | 345 kts | 283° |
| 2026-05-05 17:46 | 35.99697 | 13.50942 | 19424 ft | 346 kts | 283° |
| 2026-05-05 17:46 | 36.00264 | 13.48026 | 19698 ft | 348 kts | 283° |
| 2026-05-05 17:46 | 36.00829 | 13.45116 | 19959 ft | 350 kts | 283° |
| 2026-05-05 17:47 | 36.01393 | 13.42206 | 20203 ft | 352 kts | 283° |
| 2026-05-05 17:47 | 36.01967 | 13.39244 | 20451 ft | 354 kts | 283° |
| 2026-05-05 17:47 | 36.02535 | 13.36311 | 20701 ft | 355 kts | 283° |
| 2026-05-05 17:47 | 36.03104 | 13.33360 | 20952 ft | 356 kts | 282° |
| 2026-05-05 17:48 | 36.03685 | 13.30353 | 21203 ft | 358 kts | 282° |
| 2026-05-05 17:48 | 36.04258 | 13.27377 | 21432 ft | 359 kts | 282° |
| 2026-05-05 17:48 | 36.04833 | 13.24389 | 21662 ft | 360 kts | 282° |
| 2026-05-05 17:48 | 36.05418 | 13.21348 | 21903 ft | 361 kts | 282° |
| 2026-05-05 17:49 | 36.05996 | 13.18331 | 22117 ft | 363 kts | 282° |
| 2026-05-05 17:49 | 36.06574 | 13.15310 | 22333 ft | 364 kts | 282° |
| 2026-05-05 17:49 | 36.07153 | 13.12280 | 22550 ft | 365 kts | 282° |
| 2026-05-05 17:49 | 36.07740 | 13.09202 | 22758 ft | 366 kts | 282° |
| 2026-05-05 17:50 | 36.08322 | 13.06146 | 22954 ft | 367 kts | 282° |
| 2026-05-05 17:50 | 36.08905 | 13.03085 | 23132 ft | 369 kts | 282° |
| 2026-05-05 17:50 | 36.09489 | 13.00013 | 23217 ft | 373 kts | 282° |
| 2026-05-05 17:50 | 36.10088 | 12.96854 | 23301 ft | 376 kts | 282° |
| 2026-05-05 17:51 | 36.10687 | 12.93692 | 23376 ft | 379 kts | 282° |
| 2026-05-05 17:51 | 36.11270 | 12.90618 | 23375 ft | 354 kts | 282° |
| 2026-05-05 17:51 | 36.11813 | 12.87754 | 23371 ft | 337 kts | 282° |
| 2026-05-05 17:51 | 36.12334 | 12.84988 | 23365 ft | 329 kts | 282° |
| 2026-05-05 17:52 | 36.12827 | 12.82382 | 23339 ft | 295 kts | 282° |
| 2026-05-05 17:52 | 36.13271 | 12.80031 | 23325 ft | 276 kts | 281° |
| 2026-05-05 17:52 | 36.13719 | 12.77629 | 23341 ft | 294 kts | 281° |
| 2026-05-05 17:52 | 36.14183 | 12.75136 | 23540 ft | 308 kts | 282° |
| 2026-05-05 17:53 | 36.14672 | 12.72519 | 23786 ft | 320 kts | 282° |
| 2026-05-05 17:53 | 36.15184 | 12.69778 | 24031 ft | 333 kts | 282° |
| 2026-05-05 17:53 | 36.15717 | 12.66931 | 24271 ft | 346 kts | 282° |
| 2026-05-05 17:53 | 36.16267 | 12.63981 | 24503 ft | 358 kts | 282° |
| 2026-05-05 17:54 | 36.16832 | 12.60958 | 24724 ft | 370 kts | 282° |
| 2026-05-05 17:54 | 36.17418 | 12.57807 | 24955 ft | 381 kts | 282° |
| 2026-05-05 17:54 | 36.18021 | 12.54565 | 25177 ft | 391 kts | 282° |
| 2026-05-05 17:54 | 36.18632 | 12.51275 | 25391 ft | 401 kts | 282° |
| 2026-05-05 17:55 | 36.19272 | 12.47829 | 25598 ft | 411 kts | 282° |
| 2026-05-05 17:55 | 36.19911 | 12.44376 | 25792 ft | 420 kts | 282° |
| 2026-05-05 17:55 | 36.20571 | 12.40804 | 25976 ft | 429 kts | 282° |
| 2026-05-05 17:55 | 36.21237 | 12.37192 | 26150 ft | 437 kts | 282° |
| 2026-05-05 17:56 | 36.21918 | 12.33493 | 26320 ft | 445 kts | 281° |
| 2026-05-05 17:56 | 36.22605 | 12.29755 | 26492 ft | 451 kts | 282° |
| 2026-05-05 17:56 | 36.23306 | 12.25929 | 26645 ft | 458 kts | 282° |
| 2026-05-05 17:56 | 36.24007 | 12.22096 | 26802 ft | 464 kts | 282° |
| 2026-05-05 17:57 | 36.24724 | 12.18173 | 27089 ft | 466 kts | 282° |
| 2026-05-05 17:57 | 36.25431 | 12.14301 | 27499 ft | 464 kts | 282° |
| 2026-05-05 17:57 | 36.26143 | 12.10390 | 27954 ft | 462 kts | 282° |
| 2026-05-05 17:57 | 36.26842 | 12.06543 | 28395 ft | 461 kts | 282° |
| 2026-05-05 17:58 | 36.27539 | 12.02694 | 28826 ft | 459 kts | 282° |
| 2026-05-05 17:58 | 36.28241 | 11.98815 | 29271 ft | 458 kts | 282° |
| 2026-05-05 17:58 | 36.28931 | 11.94988 | 29728 ft | 456 kts | 282° |
| 2026-05-05 17:58 | 36.29608 | 11.91221 | 30160 ft | 454 kts | 282° |
| 2026-05-05 17:59 | 36.30302 | 11.87370 | 30612 ft | 452 kts | 282° |
| 2026-05-05 17:59 | 36.30975 | 11.83621 | 31079 ft | 449 kts | 282° |
| 2026-05-05 17:59 | 36.31651 | 11.79848 | 31532 ft | 447 kts | 281° |
| 2026-05-05 17:59 | 36.32319 | 11.76111 | 31935 ft | 445 kts | 281° |
| 2026-05-05 18:00 | 36.32981 | 11.72401 | 32344 ft | 443 kts | 281° |
| 2026-05-05 18:00 | 36.33645 | 11.68669 | 32740 ft | 441 kts | 281° |
| 2026-05-05 18:00 | 36.34299 | 11.64988 | 33101 ft | 440 kts | 281° |
| 2026-05-05 18:00 | 36.34960 | 11.61261 | 33450 ft | 439 kts | 281° |
| 2026-05-05 18:01 | 36.35610 | 11.57588 | 33759 ft | 438 kts | 281° |
| 2026-05-05 18:01 | 36.36262 | 11.53895 | 34088 ft | 437 kts | 281° |
| 2026-05-05 18:01 | 36.36902 | 11.50266 | 34448 ft | 435 kts | 281° |
| 2026-05-05 18:01 | 36.37544 | 11.46617 | 34798 ft | 434 kts | 281° |
| 2026-05-05 18:02 | 36.38186 | 11.42963 | 35111 ft | 432 kts | 281° |
| 2026-05-05 18:02 | 36.38824 | 11.39318 | 35420 ft | 431 kts | 281° |
| 2026-05-05 18:02 | 36.39456 | 11.35711 | 35720 ft | 430 kts | 281° |
| 2026-05-05 18:02 | 36.40087 | 11.32097 | 36038 ft | 428 kts | 280° |
| 2026-05-05 18:03 | 36.40711 | 11.28522 | 36339 ft | 426 kts | 280° |
| 2026-05-05 18:03 | 36.41336 | 11.24930 | 36626 ft | 425 kts | 280° |
| 2026-05-05 18:03 | 36.41953 | 11.21375 | 36865 ft | 424 kts | 280° |
| 2026-05-05 18:03 | 36.42565 | 11.17839 | 37089 ft | 423 kts | 280° |
| 2026-05-05 18:04 | 36.43182 | 11.14273 | 37309 ft | 422 kts | 280° |
| 2026-05-05 18:04 | 36.43795 | 11.10726 | 37481 ft | 422 kts | 280° |
| 2026-05-05 18:04 | 36.44458 | 11.07174 | 37592 ft | 423 kts | 284° |
| 2026-05-05 18:04 | 36.45350 | 11.03719 | 37733 ft | 423 kts | 286° |
| 2026-05-05 18:05 | 36.46299 | 11.00253 | 37880 ft | 423 kts | 287° |
| 2026-05-05 18:05 | 36.47239 | 10.96826 | 37989 ft | 423 kts | 287° |
| 2026-05-05 18:05 | 36.48188 | 10.93347 | 37994 ft | 423 kts | 287° |
| 2026-05-05 18:06 | 36.50055 | 10.86439 | 37997 ft | 423 kts | 286° |
| 2026-05-05 18:06 | 36.51903 | 10.79540 | 37999 ft | 424 kts | 286° |
| 2026-05-05 18:07 | 36.53756 | 10.72587 | 37995 ft | 424 kts | 286° |
| 2026-05-05 18:07 | 36.55593 | 10.65665 | 37985 ft | 425 kts | 287° |
| 2026-05-05 18:08 | 36.57439 | 10.58694 | 37979 ft | 426 kts | 286° |
| 2026-05-05 18:08 | 36.59288 | 10.51695 | 37985 ft | 426 kts | 287° |
| 2026-05-05 18:09 | 36.61129 | 10.44708 | 37986 ft | 425 kts | 286° |
| 2026-05-05 18:09 | 36.62964 | 10.37714 | 37975 ft | 426 kts | 286° |
| 2026-05-05 18:10 | 36.64792 | 10.30734 | 37983 ft | 425 kts | 286° |
| 2026-05-05 18:10 | 36.66610 | 10.23774 | 37980 ft | 425 kts | 286° |
| 2026-05-05 18:11 | 36.68427 | 10.16797 | 37972 ft | 425 kts | 286° |
| 2026-05-05 18:11 | 36.70254 | 10.09766 | 37970 ft | 426 kts | 286° |
| 2026-05-05 18:12 | 36.72067 | 10.02767 | 37969 ft | 427 kts | 286° |
| 2026-05-05 18:12 | 36.73871 | 9.95785 | 37964 ft | 427 kts | 286° |
| 2026-05-05 18:13 | 36.75689 | 9.88729 | 37966 ft | 427 kts | 286° |
| 2026-05-05 18:13 | 36.77490 | 9.81718 | 37961 ft | 427 kts | 286° |
| 2026-05-05 18:14 | 36.79289 | 9.74698 | 37966 ft | 425 kts | 286° |
| 2026-05-05 18:14 | 36.81078 | 9.67702 | 37963 ft | 425 kts | 286° |
| 2026-05-05 18:15 | 36.82870 | 9.60665 | 37971 ft | 425 kts | 286° |
| 2026-05-05 18:15 | 36.84651 | 9.53655 | 37978 ft | 425 kts | 286° |
| 2026-05-05 18:16 | 36.86430 | 9.46637 | 37989 ft | 425 kts | 286° |
| 2026-05-05 18:16 | 36.88211 | 9.39588 | 37795 ft | 424 kts | 286° |
| 2026-05-05 18:16 | 36.89088 | 9.36110 | 37922 ft | 424 kts | 285° |
| 2026-05-05 18:17 | 36.89978 | 9.32573 | 37959 ft | 424 kts | 285° |
| 2026-05-05 18:17 | 36.91744 | 9.25545 | 37986 ft | 425 kts | 285° |
| 2026-05-05 18:18 | 36.93504 | 9.18519 | 37981 ft | 425 kts | 285° |
| 2026-05-05 18:18 | 36.95265 | 9.11473 | 37977 ft | 425 kts | 285° |
| 2026-05-05 18:19 | 36.97030 | 9.04385 | 37965 ft | 425 kts | 285° |
| 2026-05-05 18:19 | 36.98781 | 8.97339 | 37972 ft | 424 kts | 285° |
| 2026-05-05 18:20 | 37.00531 | 8.90277 | 37962 ft | 424 kts | 285° |
| 2026-05-05 18:20 | 37.02261 | 8.83276 | 37962 ft | 424 kts | 285° |
| 2026-05-05 18:21 | 37.04001 | 8.76215 | 37964 ft | 424 kts | 285° |
| 2026-05-05 18:21 | 37.05740 | 8.69131 | 37963 ft | 424 kts | 285° |
| 2026-05-05 18:22 | 37.07457 | 8.62124 | 37974 ft | 424 kts | 285° |
| 2026-05-05 18:22 | 37.09184 | 8.55052 | 37974 ft | 424 kts | 285° |
| 2026-05-05 18:23 | 37.10898 | 8.48003 | 37969 ft | 424 kts | 285° |
| 2026-05-05 18:23 | 37.12612 | 8.40950 | 37974 ft | 425 kts | 285° |
| 2026-05-05 18:24 | 37.14339 | 8.33817 | 37980 ft | 425 kts | 284° |
| 2026-05-05 18:24 | 37.16039 | 8.26773 | 37987 ft | 425 kts | 284° |
| 2026-05-05 18:25 | 37.17754 | 8.19644 | 37982 ft | 425 kts | 284° |
| 2026-05-05 18:25 | 37.19455 | 8.12563 | 37984 ft | 425 kts | 284° |
| 2026-05-05 18:26 | 37.21145 | 8.05504 | 37975 ft | 424 kts | 284° |
| 2026-05-05 18:26 | 37.22836 | 7.98415 | 37984 ft | 424 kts | 284° |
| 2026-05-05 18:27 | 37.24516 | 7.91346 | 37978 ft | 424 kts | 284° |
| 2026-05-05 18:27 | 37.26196 | 7.84265 | 37976 ft | 423 kts | 284° |
| 2026-05-05 18:28 | 37.28702 | 7.73664 | 37984 ft | 423 kts | 284° |
| 2026-05-05 18:28 | 37.30368 | 7.66592 | 37987 ft | 424 kts | 284° |
| 2026-05-05 18:29 | 37.32034 | 7.59494 | 37987 ft | 424 kts | 284° |
| 2026-05-05 18:29 | 37.33686 | 7.52430 | 37979 ft | 423 kts | 284° |
| 2026-05-05 18:30 | 37.35337 | 7.45355 | 37985 ft | 422 kts | 284° |
| 2026-05-05 18:30 | 37.36986 | 7.38264 | 37983 ft | 423 kts | 284° |
| 2026-05-05 18:31 | 37.38626 | 7.31194 | 37986 ft | 421 kts | 283° |
| 2026-05-05 18:31 | 37.39926 | 7.25573 | 37985 ft | 422 kts | 283° |
| 2026-05-05 18:32 | 37.40065 | 7.24960 | 37784 ft | 425 kts | 294° |
| 2026-05-05 18:32 | 37.40847 | 7.21214 | 36668 ft | 461 kts | 286° |
| 2026-05-05 18:32 | 37.41599 | 7.17216 | 35762 ft | 489 kts | 285° |
| 2026-05-05 18:33 | 37.42562 | 7.13086 | 35945 ft | 489 kts | 288° |
| 2026-05-05 18:33 | 37.43551 | 7.09104 | 36978 ft | 473 kts | 290° |
| 2026-05-05 18:33 | 37.44523 | 7.05165 | 37089 ft | 479 kts | 290° |
| 2026-05-05 18:33 | 37.45493 | 7.01127 | 37110 ft | 486 kts | 290° |
| 2026-05-05 18:34 | 37.47575 | 6.92874 | 36897 ft | 506 kts | 292° |
| 2026-05-05 18:34 | 37.49558 | 6.84279 | 36971 ft | 521 kts | 287° |
| 2026-05-05 18:35 | 37.51461 | 6.75380 | 36979 ft | 535 kts | 288° |
| 2026-05-05 18:35 | 37.53473 | 6.66273 | 37027 ft | 545 kts | 288° |
| 2026-05-05 18:36 | 37.54507 | 6.61655 | 37138 ft | 549 kts | 288° |
| 2026-05-05 18:36 | 37.55543 | 6.57025 | 37249 ft | 552 kts | 289° |
| 2026-05-05 18:36 | 37.56578 | 6.52397 | 37361 ft | 555 kts | 289° |
| 2026-05-05 18:36 | 37.57626 | 6.47716 | 37473 ft | 558 kts | 289° |
| 2026-05-05 18:37 | 37.58680 | 6.42991 | 37586 ft | 562 kts | 289° |
| 2026-05-05 18:37 | 37.59723 | 6.38292 | 37700 ft | 565 kts | 289° |
| 2026-05-05 18:37 | 37.60783 | 6.33514 | 37806 ft | 568 kts | 289° |
| 2026-05-05 18:37 | 37.61855 | 6.28688 | 37875 ft | 571 kts | 289° |
| 2026-05-05 18:38 | 37.63977 | 6.19087 | 37979 ft | 577 kts | 289° |
| 2026-05-05 18:38 | 37.66137 | 6.09279 | 37982 ft | 585 kts | 289° |
| 2026-05-05 18:39 | 37.68312 | 5.99370 | 37981 ft | 592 kts | 289° |
| 2026-05-05 18:39 | 37.70502 | 5.89321 | 37980 ft | 596 kts | 289° |
| 2026-05-05 18:40 | 37.72672 | 5.79303 | 37979 ft | 596 kts | 288° |
| 2026-05-05 18:40 | 37.74855 | 5.69212 | 37980 ft | 596 kts | 288° |
| 2026-05-05 18:41 | 37.77021 | 5.59144 | 37980 ft | 595 kts | 289° |
| 2026-05-05 18:41 | 37.79190 | 5.49038 | 37980 ft | 597 kts | 288° |
| 2026-05-05 18:42 | 37.81338 | 5.38929 | 37980 ft | 596 kts | 289° |
| 2026-05-05 18:42 | 37.83476 | 5.28860 | 37977 ft | 596 kts | 288° |
| 2026-05-05 18:43 | 37.85624 | 5.18739 | 37980 ft | 597 kts | 288° |
| 2026-05-05 18:43 | 37.87753 | 5.08601 | 37981 ft | 597 kts | 288° |
| 2026-05-05 18:44 | 37.89859 | 4.98538 | 37980 ft | 597 kts | 288° |
| 2026-05-05 18:44 | 37.91974 | 4.88390 | 37980 ft | 596 kts | 288° |
| 2026-05-05 18:45 | 37.94073 | 4.78281 | 37979 ft | 596 kts | 288° |
| 2026-05-05 18:45 | 37.96178 | 4.68096 | 37981 ft | 597 kts | 288° |
| 2026-05-05 18:46 | 37.98273 | 4.57895 | 37980 ft | 597 kts | 288° |
| 2026-05-05 18:46 | 38.00343 | 4.47727 | 37980 ft | 596 kts | 288° |
| 2026-05-05 18:47 | 38.02413 | 4.37578 | 37980 ft | 596 kts | 288° |
| 2026-05-05 18:47 | 38.04479 | 4.27405 | 37978 ft | 597 kts | 287° |
| 2026-05-05 18:48 | 38.06538 | 4.17183 | 37980 ft | 597 kts | 287° |
| 2026-05-05 18:48 | 38.08575 | 4.07016 | 37980 ft | 597 kts | 287° |
| 2026-05-05 18:49 | 38.10626 | 3.96739 | 37980 ft | 597 kts | 287° |
| 2026-05-05 18:49 | 38.12645 | 3.86578 | 37980 ft | 596 kts | 288° |
| 2026-05-05 18:50 | 38.14667 | 3.76376 | 37979 ft | 597 kts | 287° |
| 2026-05-05 18:50 | 38.16674 | 3.66153 | 37980 ft | 597 kts | 287° |
| 2026-05-05 18:51 | 38.18661 | 3.55974 | 37980 ft | 597 kts | 287° |
| 2026-05-05 18:51 | 38.20701 | 3.45749 | 37980 ft | 595 kts | 290° |
| 2026-05-05 18:52 | 38.23480 | 3.35964 | 37979 ft | 588 kts | 301° |
| 2026-05-05 18:52 | 38.26952 | 3.26491 | 37980 ft | 587 kts | 302° |
| 2026-05-05 18:53 | 38.30438 | 3.17118 | 37980 ft | 588 kts | 301° |
| 2026-05-05 18:53 | 38.33858 | 3.07714 | 37981 ft | 589 kts | 301° |
| 2026-05-05 18:54 | 38.37288 | 2.98192 | 37979 ft | 589 kts | 300° |
| 2026-05-05 18:54 | 38.40689 | 2.88712 | 37981 ft | 589 kts | 301° |
| 2026-05-05 18:55 | 38.44078 | 2.79236 | 37980 ft | 588 kts | 300° |
| 2026-05-05 18:55 | 38.47465 | 2.69730 | 37981 ft | 588 kts | 301° |
| 2026-05-05 18:56 | 38.50847 | 2.60231 | 37979 ft | 588 kts | 301° |
| 2026-05-05 18:56 | 38.54199 | 2.50779 | 37980 ft | 588 kts | 301° |
| 2026-05-05 18:57 | 38.57557 | 2.41269 | 37980 ft | 588 kts | 301° |
| 2026-05-05 18:57 | 38.60903 | 2.31759 | 37973 ft | 588 kts | 300° |
| 2026-05-05 18:58 | 38.64250 | 2.22211 | 37979 ft | 587 kts | 300° |
| 2026-05-05 18:58 | 38.67614 | 2.12673 | 37979 ft | 587 kts | 301° |
| 2026-05-05 18:59 | 38.71111 | 2.03211 | 37980 ft | 588 kts | 302° |
| 2026-05-05 18:59 | 38.74598 | 1.93773 | 37979 ft | 587 kts | 301° |
| 2026-05-05 19:00 | 38.78048 | 1.84339 | 37980 ft | 588 kts | 301° |
| 2026-05-05 19:00 | 38.81501 | 1.74852 | 37979 ft | 588 kts | 301° |
| 2026-05-05 19:01 | 38.84943 | 1.65355 | 37980 ft | 587 kts | 302° |
| 2026-05-05 19:01 | 38.88392 | 1.55829 | 37979 ft | 588 kts | 301° |
| 2026-05-05 19:02 | 38.91800 | 1.46245 | 37980 ft | 590 kts | 299° |
| 2026-05-05 19:02 | 38.94809 | 1.36498 | 37981 ft | 591 kts | 296° |
| 2026-05-05 19:03 | 38.97758 | 1.26587 | 37979 ft | 592 kts | 295° |
| 2026-05-05 19:03 | 39.00704 | 1.16681 | 37980 ft | 593 kts | 295° |
| 2026-05-05 19:04 | 39.03650 | 1.06795 | 37980 ft | 592 kts | 296° |
| 2026-05-05 19:04 | 39.06585 | 0.96942 | 37981 ft | 592 kts | 296° |
| 2026-05-05 19:05 | 39.09520 | 0.87041 | 37981 ft | 591 kts | 296° |
| 2026-05-05 19:05 | 39.12440 | 0.77154 | 37980 ft | 592 kts | 296° |
| 2026-05-05 19:06 | 39.15367 | 0.67217 | 37981 ft | 591 kts | 296° |
| 2026-05-05 19:06 | 39.18274 | 0.57303 | 37981 ft | 591 kts | 296° |
| 2026-05-05 19:07 | 39.21158 | 0.47430 | 37980 ft | 592 kts | 296° |
| 2026-05-05 19:07 | 39.24056 | 0.37496 | 37980 ft | 592 kts | 296° |
| 2026-05-05 19:08 | 39.26944 | 0.27550 | 37978 ft | 593 kts | 295° |
| 2026-05-05 19:08 | 39.29810 | 0.17611 | 37980 ft | 592 kts | 295° |
| 2026-05-05 19:09 | 39.32677 | 0.07650 | 37980 ft | 593 kts | 295° |
| 2026-05-05 19:09 | 39.35533 | -0.02314 | 37979 ft | 592 kts | 295° |
| 2026-05-05 19:10 | 39.38380 | -0.12263 | 37980 ft | 593 kts | 295° |
| 2026-05-05 19:10 | 39.41233 | -0.22297 | 37979 ft | 592 kts | 295° |
| 2026-05-05 19:11 | 39.44059 | -0.32278 | 37980 ft | 593 kts | 295° |
| 2026-05-05 19:11 | 39.46877 | -0.42290 | 37982 ft | 593 kts | 296° |
| 2026-05-05 19:12 | 39.50143 | -0.51992 | 37982 ft | 584 kts | 305° |
| 2026-05-05 19:12 | 39.54138 | -0.61132 | 37986 ft | 580 kts | 308° |
| 2026-05-05 19:13 | 39.58211 | -0.70130 | 37986 ft | 582 kts | 307° |
| 2026-05-05 19:13 | 39.62258 | -0.79263 | 37993 ft | 582 kts | 307° |
| 2026-05-05 19:14 | 39.66245 | -0.88364 | 37996 ft | 583 kts | 307° |
| 2026-05-05 19:14 | 39.70233 | -0.97506 | 37998 ft | 581 kts | 307° |
| 2026-05-05 19:15 | 39.74209 | -1.06620 | 37998 ft | 583 kts | 307° |
| 2026-05-05 19:15 | 39.78190 | -1.15782 | 38001 ft | 581 kts | 307° |
| 2026-05-05 19:16 | 39.82174 | -1.24905 | 38004 ft | 582 kts | 307° |
| 2026-05-05 19:16 | 39.86164 | -1.34117 | 38007 ft | 583 kts | 307° |
| 2026-05-05 19:17 | 39.90123 | -1.43312 | 38010 ft | 583 kts | 307° |
| 2026-05-05 19:17 | 39.94079 | -1.52496 | 38012 ft | 582 kts | 307° |
| 2026-05-05 19:18 | 39.98019 | -1.61669 | 38015 ft | 583 kts | 307° |
| 2026-05-05 19:18 | 40.01976 | -1.70914 | 38012 ft | 583 kts | 307° |
| 2026-05-05 19:19 | 40.05931 | -1.80191 | 38012 ft | 583 kts | 306° |
| 2026-05-05 19:19 | 40.09878 | -1.89479 | 38015 ft | 586 kts | 307° |
| 2026-05-05 19:20 | 40.13813 | -1.98786 | 38014 ft | 584 kts | 306° |
| 2026-05-05 19:20 | 40.15776 | -2.03424 | 37898 ft | 581 kts | 306° |
| 2026-05-05 19:20 | 40.17698 | -2.07968 | 37526 ft | 572 kts | 306° |
| 2026-05-05 19:21 | 40.19603 | -2.12453 | 36768 ft | 557 kts | 304° |
| 2026-05-05 19:21 | 40.21464 | -2.16826 | 35864 ft | 537 kts | 302° |
| 2026-05-05 19:21 | 40.23209 | -2.20954 | 35298 ft | 503 kts | 300° |
| 2026-05-05 19:21 | 40.24824 | -2.24797 | 35409 ft | 461 kts | 300° |
| 2026-05-05 19:22 | 40.26318 | -2.28371 | 35472 ft | 449 kts | 300° |
| 2026-05-05 19:22 | 40.27542 | -2.32100 | 35088 ft | 449 kts | 285° |
| 2026-05-05 19:22 | 40.28059 | -2.36090 | 34305 ft | 441 kts | 270° |
| 2026-05-05 19:22 | 40.27760 | -2.39962 | 33778 ft | 418 kts | 257° |
| 2026-05-05 19:23 | 40.27079 | -2.43555 | 33319 ft | 396 kts | 257° |
| 2026-05-05 19:23 | 40.26570 | -2.46974 | 32810 ft | 380 kts | 261° |
| 2026-05-05 19:23 | 40.26277 | -2.50368 | 32022 ft | 373 kts | 265° |
| 2026-05-05 19:23 | 40.26139 | -2.53758 | 30837 ft | 377 kts | 267° |
| 2026-05-05 19:24 | 40.26078 | -2.57170 | 29487 ft | 384 kts | 268° |
| 2026-05-05 19:24 | 40.26046 | -2.60610 | 28091 ft | 390 kts | 268° |
| 2026-05-05 19:24 | 40.26036 | -2.64120 | 26800 ft | 390 kts | 268° |
| 2026-05-05 19:24 | 40.26031 | -2.67633 | 25725 ft | 383 kts | 268° |
| 2026-05-05 19:25 | 40.26025 | -2.71028 | 24751 ft | 375 kts | 268° |
| 2026-05-05 19:25 | 40.26018 | -2.74399 | 23754 ft | 368 kts | 267° |
| 2026-05-05 19:25 | 40.26007 | -2.77694 | 22760 ft | 361 kts | 267° |
| 2026-05-05 19:25 | 40.25994 | -2.80916 | 21777 ft | 355 kts | 267° |
| 2026-05-05 19:26 | 40.25982 | -2.84072 | 20810 ft | 348 kts | 267° |
| 2026-05-05 19:26 | 40.25969 | -2.87223 | 19825 ft | 342 kts | 266° |
| 2026-05-05 19:26 | 40.25954 | -2.90277 | 18799 ft | 338 kts | 267° |
| 2026-05-05 19:26 | 40.25937 | -2.93322 | 17409 ft | 343 kts | 266° |
| 2026-05-05 19:27 | 40.25920 | -2.96412 | 15881 ft | 349 kts | 266° |
| 2026-05-05 19:27 | 40.25902 | -2.99584 | 14435 ft | 353 kts | 267° |
| 2026-05-05 19:27 | 40.25885 | -3.02693 | 13344 ft | 343 kts | 267° |
| 2026-05-05 19:27 | 40.25870 | -3.05767 | 12288 ft | 334 kts | 266° |
| 2026-05-05 19:28 | 40.25853 | -3.08722 | 11242 ft | 328 kts | 266° |
| 2026-05-05 19:28 | 40.25726 | -3.11661 | 10013 ft | 325 kts | 255° |
| 2026-05-05 19:28 | 40.24934 | -3.14367 | 8762 ft | 321 kts | 235° |
| 2026-05-05 19:28 | 40.23449 | -3.16457 | 7562 ft | 317 kts | 216° |
| 2026-05-05 19:29 | 40.21685 | -3.18074 | 6422 ft | 316 kts | 211° |
| 2026-05-05 19:29 | 40.19868 | -3.19643 | 5380 ft | 315 kts | 216° |
| 2026-05-05 19:29 | 40.18423 | -3.21782 | 4591 ft | 320 kts | 245° |
| 2026-05-05 19:29 | 40.17977 | -3.24585 | 4157 ft | 319 kts | 273° |
| 2026-05-05 19:30 | 40.18454 | -3.27377 | 4048 ft | 316 kts | 295° |
| 2026-05-05 19:30 | 40.19707 | -3.29745 | 4042 ft | 315 kts | 318° |
| 2026-05-05 19:30 | 40.21540 | -3.31245 | 4046 ft | 313 kts | 336° |
| 2026-05-05 19:30 | 40.23513 | -3.32511 | 4041 ft | 314 kts | 330° |
| 2026-05-05 19:31 | 40.25304 | -3.34063 | 4035 ft | 305 kts | 325° |
| 2026-05-05 19:31 | 40.26952 | -3.35677 | 4032 ft | 286 kts | 323° |
| 2026-05-05 19:31 | 40.28478 | -3.37234 | 4030 ft | 266 kts | 323° |
| 2026-05-05 19:31 | 40.29874 | -3.38671 | 4025 ft | 242 kts | 323° |
| 2026-05-05 19:32 | 40.31146 | -3.39975 | 4024 ft | 226 kts | 323° |
| 2026-05-05 19:32 | 40.32426 | -3.41281 | 4037 ft | 238 kts | 323° |
| 2026-05-05 19:32 | 40.33750 | -3.42628 | 4038 ft | 240 kts | 323° |
| 2026-05-05 19:32 | 40.35034 | -3.43935 | 4026 ft | 227 kts | 323° |
| 2026-05-05 19:33 | 40.36251 | -3.45174 | 4019 ft | 212 kts | 323° |
| 2026-05-05 19:33 | 40.37391 | -3.46334 | 4010 ft | 203 kts | 323° |
| 2026-05-05 19:33 | 40.38484 | -3.47444 | 3937 ft | 195 kts | 323° |
| 2026-05-05 19:33 | 40.39536 | -3.48513 | 3647 ft | 189 kts | 324° |
| 2026-05-05 19:34 | 40.40559 | -3.49554 | 3401 ft | 180 kts | 324° |
| 2026-05-05 19:34 | 40.41513 | -3.50524 | 3139 ft | 169 kts | 324° |
| 2026-05-05 19:34 | 40.42408 | -3.51435 | 2913 ft | 154 kts | 324° |
| 2026-05-05 19:35 | 40.43936 | -3.52985 | 2526 ft | 129 kts | 324° |
| 2026-05-05 19:35 | 40.44648 | -3.53708 | 2375 ft | 128 kts | 324° |
| 2026-05-05 19:35 | 40.45351 | -3.54423 | 2214 ft | 128 kts | 324° |
| 2026-05-05 19:35 | 40.46052 | -3.55131 | 2041 ft | 126 kts | 324° |
| 2026-05-05 19:36 | 40.46738 | -3.55816 | 1957 ft | 116 kts | 324° |
| 2026-05-05 19:36 | 40.47261 | -3.56324 | 1969 ft | 66 kts | 322° |